Time;durP1;ratioP1;P1;durP2;ratioP2;P2;SDS_P1;SDS_P2;PMS_P1;PMS_P2;Temp;Humidity;BMP_temperature;BMP_pressure;BME280_temperature;BME280_humidity;BME280_pressure;Samples;Min_cycle;Max_cycle;Signal;HPM_P1;HPM_P2
2022/05/12 00:01:31;;;;;;;12.33;7.40;;;;;;;7.45;100.00;100939.38;1754977;82;21724;-61
2022/05/12 00:03:59;;;;;;;12.68;7.45;;;;;;;7.69;100.00;100943.06;1755121;82;21542;-60
2022/05/12 00:06:26;;;;;;;15.28;7.17;;;;;;;7.45;100.00;100944.95;1754653;82;21555;-62
2022/05/12 00:08:53;;;;;;;18.23;7.20;;;;;;;7.30;100.00;100943.16;1754653;82;21047;-61
2022/05/12 00:11:20;;;;;;;14.07;7.10;;;;;;;7.25;100.00;100949.27;1754673;82;21618;-61
2022/05/12 00:13:48;;;;;;;12.68;6.53;;;;;;;7.20;100.00;100950.20;1754769;82;21061;-61
2022/05/12 00:16:17;;;;;;;13.25;6.87;;;;;;;7.15;100.00;100948.63;1755007;82;21046;-61
2022/05/12 00:18:43;;;;;;;14.47;7.40;;;;;;;7.24;100.00;100947.15;1754910;82;21046;-61
2022/05/12 00:21:10;;;;;;;14.87;6.92;;;;;;;7.20;100.00;100949.37;1754771;81;21051;-61
2022/05/12 00:23:39;;;;;;;13.60;6.55;;;;;;;7.20;100.00;100950.66;1755019;81;21063;-60
2022/05/12 00:26:05;;;;;;;12.98;7.00;;;;;;;7.14;100.00;100946.95;1755170;82;21074;-61
2022/05/12 00:28:33;;;;;;;17.67;7.00;;;;;;;7.59;100.00;100942.89;1754773;82;21047;-61
2022/05/12 00:31:01;;;;;;;11.28;6.78;;;;;;;7.31;100.00;100945.27;1754713;82;21561;-61
2022/05/12 00:33:28;;;;;;;15.23;6.70;;;;;;;7.13;100.00;100935.02;1754760;81;21030;-61
2022/05/12 00:35:57;;;;;;;11.08;6.80;;;;;;;7.02;100.00;100939.11;1754593;82;21027;-60
2022/05/12 00:38:24;;;;;;;11.45;6.62;;;;;;;7.14;100.00;100941.39;1754658;81;21011;-61
2022/05/12 00:40:52;;;;;;;13.55;6.42;;;;;;;7.00;100.00;100940.41;1754871;82;21086;-61
2022/05/12 00:43:42;;;;;;;14.93;6.72;;;;;;;7.12;100.00;100938.47;1754627;82;21054;-61
2022/05/12 00:46:23;;;;;;;13.13;6.25;;;;;;;7.18;100.00;100939.16;1754709;81;21027;-61
2022/05/12 00:48:52;;;;;;;11.38;6.28;;;;;;;7.19;100.00;100942.55;1754206;81;21086;-61
2022/05/12 00:51:25;;;;;;;10.65;6.40;;;;;;;7.17;100.00;100932.34;1754855;82;21034;-61
2022/05/12 00:53:55;;;;;;;12.33;6.87;;;;;;;7.17;100.00;100933.62;1753640;82;21068;-62
2022/05/12 00:56:24;;;;;;;12.07;6.17;;;;;;;6.99;100.00;100935.33;1754897;82;21097;-60
2022/05/12 00:58:58;;;;;;;11.48;6.08;;;;;;;6.90;100.00;100932.54;1754956;82;21047;-61
2022/05/12 01:01:25;;;;;;;11.05;6.50;;;;;;;6.91;100.00;100930.38;1755160;82;21030;-61
2022/05/12 01:03:56;;;;;;;12.85;6.78;;;;;;;6.88;100.00;100936.85;1754981;81;21086;-60
2022/05/12 01:06:23;;;;;;;12.63;7.05;;;;;;;6.82;100.00;100939.55;1754765;81;21007;-60
2022/05/12 01:08:51;;;;;;;15.43;7.03;;;;;;;6.81;100.00;100936.16;1754742;82;21078;-59
2022/05/12 01:11:21;;;;;;;14.78;6.72;;;;;;;6.75;100.00;100929.02;1754688;81;21134;-60
2022/05/12 01:14:04;;;;;;;12.80;6.67;;;;;;;6.74;100.00;100933.30;1754867;82;21471;-61
2022/05/12 01:16:42;;;;;;;12.00;7.53;;;;;;;6.67;100.00;100929.63;1754722;82;21047;-61
2022/05/12 01:19:15;;;;;;;14.23;7.80;;;;;;;6.68;100.00;100938.55;1754993;82;21070;-59
2022/05/12 01:21:43;;;;;;;13.32;7.83;;;;;;;6.62;100.00;100934.84;1754725;81;21038;-61
2022/05/12 01:24:11;;;;;;;11.93;8.55;;;;;;;6.51;100.00;100935.48;1754998;82;20999;-61
2022/05/12 01:26:39;;;;;;;13.68;8.45;;;;;;;6.49;100.00;100936.83;1754729;81;21389;-61
2022/05/12 01:29:07;;;;;;;12.50;7.55;;;;;;;6.46;100.00;100940.70;1754940;82;21070;-62
2022/05/12 01:31:35;;;;;;;11.48;7.40;;;;;;;6.44;100.00;100938.61;1754693;81;21500;-62
2022/05/12 01:34:06;;;;;;;10.45;6.95;;;;;;;6.37;100.00;100931.52;1755053;82;21043;-61
2022/05/12 01:36:34;;;;;;;11.45;7.22;;;;;;;6.17;100.00;100935.73;1754930;82;21003;-61
2022/05/12 01:39:01;;;;;;;11.10;7.00;;;;;;;6.19;100.00;100935.27;1754703;82;21046;-61
2022/05/12 01:41:29;;;;;;;12.53;7.37;;;;;;;6.18;100.00;100942.54;1754994;81;21541;-60
2022/05/12 01:43:56;;;;;;;12.53;6.70;;;;;;;6.18;100.00;100942.54;1756744;82;21565;-60
2022/05/12 01:46:23;;;;;;;11.12;7.03;;;;;;;6.07;100.00;100938.05;1757670;81;21049;-60
2022/05/12 01:48:52;;;;;;;14.38;7.40;;;;;;;6.08;100.00;100938.89;1757751;81;21085;-60
2022/05/12 01:51:19;;;;;;;11.20;6.80;;;;;;;6.16;100.00;100931.50;1757505;81;21066;-60
2022/05/12 01:53:46;;;;;;;11.85;6.83;;;;;;;6.17;100.00;100937.45;1757805;82;21022;-61
2022/05/12 01:56:13;;;;;;;9.38;6.40;;;;;;;6.21;100.00;100931.41;1757730;81;21531;-61
2022/05/12 01:58:41;;;;;;;9.63;5.92;;;;;;;6.23;100.00;100932.22;1757851;81;21050;-60
2022/05/12 02:01:08;;;;;;;8.73;5.58;;;;;;;6.12;100.00;100930.29;1757590;81;21570;-60
2022/05/12 02:03:35;;;;;;;9.70;6.03;;;;;;;6.12;100.00;100928.56;1757500;81;21038;-60
2022/05/12 02:06:03;;;;;;;10.90;5.72;;;;;;;6.13;100.00;100930.27;1757630;82;21038;-60
2022/05/12 02:08:30;;;;;;;12.40;6.33;;;;;;;6.12;100.00;100927.73;1757525;81;21043;-59
2022/05/12 02:10:57;;;;;;;12.20;6.78;;;;;;;6.12;100.00;100927.73;1757705;82;21039;-60
2022/05/12 02:13:26;;;;;;;12.37;7.08;;;;;;;6.31;100.00;100932.91;1757619;81;21070;-60
2022/05/12 02:15:56;;;;;;;11.93;6.47;;;;;;;6.31;100.00;100932.91;1757522;81;21011;-60
2022/05/12 02:18:25;;;;;;;9.95;5.80;;;;;;;6.29;100.00;100933.83;1757698;81;21050;-60
2022/05/12 02:20:53;;;;;;;13.40;5.70;;;;;;;6.29;100.00;100933.83;1757353;82;21471;-60
2022/05/12 02:23:20;;;;;;;10.00;6.15;;;;;;;6.11;100.00;100933.29;1757818;82;21547;-59
2022/05/12 02:25:48;;;;;;;10.60;6.50;;;;;;;6.12;100.00;100942.63;1757426;82;21074;-60
2022/05/12 02:28:15;;;;;;;11.60;6.58;;;;;;;6.12;100.00;100942.63;1757243;81;21014;-60
2022/05/12 02:30:44;;;;;;;9.75;6.37;;;;;;;6.14;100.00;100949.86;1757979;81;21038;-61
2022/05/12 02:33:12;;;;;;;14.28;6.08;;;;;;;6.17;100.00;100947.67;1757554;82;21070;-60
2022/05/12 02:35:41;;;;;;;11.85;6.85;;;;;;;6.05;100.00;100947.46;1758025;81;21122;-60
2022/05/12 02:38:12;;;;;;;9.70;6.30;;;;;;;6.00;100.00;100952.66;1757682;81;21077;-61
2022/05/12 02:40:39;;;;;;;11.90;6.30;;;;;;;6.78;100.00;100957.12;1732140;82;21570;-60
2022/05/12 02:43:29;;;;;;;10.88;6.87;;;;;;;6.87;100.00;100953.06;1757664;81;21078;-60
2022/05/12 02:45:36;;;;;;;15.65;6.78;;;;;;;6.35;100.00;100961.83;1746697;82;21039;-61
2022/05/12 02:48:03;;;;;;;13.13;6.83;;;;;;;6.25;100.00;100958.59;1757773;81;21046;-60
2022/05/12 02:50:30;;;;;;;13.85;6.60;;;;;;;6.35;100.00;100954.98;1757721;82;21082;-60
2022/05/12 02:52:57;;;;;;;9.80;6.72;;;;;;;6.38;100.00;100954.08;1757901;82;21035;-60
2022/05/12 02:55:24;;;;;;;12.60;6.47;;;;;;;6.38;100.00;100954.08;1757734;82;21031;-60
2022/05/12 02:57:52;;;;;;;14.75;6.45;;;;;;;6.77;100.00;100959.25;1757748;82;21018;-60
2022/05/12 03:00:19;;;;;;;11.20;6.35;;;;;;;6.77;100.00;100959.25;1758152;81;21534;-60
2022/05/12 03:02:47;;;;;;;12.70;6.85;;;;;;;6.91;100.00;100950.01;1757832;82;21035;-60
2022/05/12 03:05:15;;;;;;;11.65;7.42;;;;;;;6.73;100.00;100951.24;1757998;81;21015;-60
2022/05/12 03:07:43;;;;;;;12.10;7.20;;;;;;;6.73;100.00;100951.24;1757714;82;21062;-60
2022/05/12 03:10:13;;;;;;;14.43;8.25;;;;;;;6.89;100.00;100955.59;1757754;81;21114;-60
2022/05/12 03:12:41;;;;;;;12.78;7.55;;;;;;;6.92;100.00;100958.94;1757908;81;21550;-60
2022/05/12 03:15:09;;;;;;;13.85;7.40;;;;;;;7.03;100.00;100954.86;1757732;82;21038;-60
2022/05/12 03:17:37;;;;;;;14.28;7.72;;;;;;;7.28;100.00;100952.59;1757914;82;21087;-61
2022/05/12 03:20:09;;;;;;;11.70;7.05;;;;;;;7.43;100.00;100961.19;1757739;82;21078;-61
2022/05/12 03:22:38;;;;;;;13.97;7.57;;;;;;;7.45;100.00;100961.16;1757783;81;21011;-60
2022/05/12 03:25:09;;;;;;;12.82;7.15;;;;;;;7.46;100.00;100960.30;1757881;82;21011;-60
2022/05/12 03:27:37;;;;;;;13.50;7.15;;;;;;;7.56;100.00;100958.33;1758002;82;21026;-60
2022/05/12 03:30:10;;;;;;;10.15;6.55;;;;;;;7.56;100.00;100963.03;1757958;81;21026;-60
2022/05/12 03:32:38;;;;;;;11.00;6.60;;;;;;;7.58;100.00;100959.99;1758223;82;21044;-60
2022/05/12 03:35:07;;;;;;;11.00;6.47;;;;;;;7.69;100.00;100961.00;1757758;81;21034;-60
2022/05/12 03:37:36;;;;;;;12.03;6.10;;;;;;;7.81;100.00;100961.97;1757846;81;20992;-60
2022/05/12 03:40:06;;;;;;;11.55;6.00;;;;;;;7.94;100.00;100964.22;1757675;82;21067;-61
2022/05/12 03:42:33;;;;;;;10.18;5.80;;;;;;;8.07;100.00;100966.02;1758048;82;21510;-60
2022/05/12 03:45:00;;;;;;;10.28;5.50;;;;;;;8.22;100.00;100965.17;1757636;82;21544;-60
2022/05/12 03:47:33;;;;;;;11.75;5.90;;;;;;;8.35;100.00;100964.84;1757723;82;21035;-60
2022/05/12 03:50:05;;;;;;;10.00;5.25;;;;;;;8.45;100.00;100967.58;1757897;82;21538;-60
2022/05/12 03:52:32;;;;;;;9.60;5.25;;;;;;;8.56;100.00;100968.13;1757799;81;21015;-61
2022/05/12 03:54:59;;;;;;;9.50;5.70;;;;;;;8.74;100.00;100965.90;1757802;81;21510;-61
2022/05/12 03:57:29;;;;;;;9.55;5.58;;;;;;;8.83;100.00;100978.03;1757630;82;21496;-60
2022/05/12 03:59:56;;;;;;;8.50;4.37;;;;;;;8.96;100.00;100978.53;1757865;81;21038;-60
2022/05/12 04:02:24;;;;;;;9.73;4.65;;;;;;;9.21;98.85;100977.78;1757601;82;21062;-61
2022/05/12 04:04:52;;;;;;;11.18;4.95;;;;;;;9.23;97.26;100976.01;1757791;82;21078;-61
2022/05/12 04:07:22;;;;;;;8.63;4.25;;;;;;;9.35;93.68;100974.79;1757964;82;21054;-61
2022/05/12 04:09:50;;;;;;;11.08;4.92;;;;;;;9.52;91.92;100979.37;1757628;81;21059;-60
2022/05/12 04:12:18;;;;;;;12.73;4.33;;;;;;;9.60;90.72;100974.83;1757487;81;21034;-61
2022/05/12 04:14:46;;;;;;;12.55;4.78;;;;;;;9.75;87.23;100976.05;1757637;81;21538;-61
2022/05/12 04:17:15;;;;;;;9.00;4.30;;;;;;;10.26;83.00;100969.17;1757733;82;21074;-61
2022/05/12 04:19:45;;;;;;;9.25;4.45;;;;;;;10.14;79.50;100972.59;1757841;81;21038;-61
2022/05/12 04:22:13;;;;;;;11.30;4.85;;;;;;;10.28;79.60;100968.67;1757872;81;21459;-61
2022/05/12 04:24:41;;;;;;;9.43;4.87;;;;;;;10.40;79.06;100965.27;1757964;82;21018;-61
2022/05/12 04:27:09;;;;;;;13.55;4.60;;;;;;;10.49;78.55;100969.23;1757676;82;21109;-60
2022/05/12 04:29:39;;;;;;;12.68;5.00;;;;;;;10.62;78.88;100970.91;1757933;81;21051;-60
2022/05/12 04:32:07;;;;;;;12.00;4.60;;;;;;;10.79;80.02;100971.58;1757793;82;21031;-60
2022/05/12 04:37:29;;;;;;;7.75;4.70;;;;;;;11.09;78.90;100964.42;1757713;81;21113;-61
2022/05/12 04:40:16;;;;;;;11.85;4.78;;;;;;;11.26;78.62;100974.06;1757986;81;21046;-62
2022/05/12 04:42:44;;;;;;;9.70;4.83;;;;;;;11.47;78.16;100967.66;1757604;81;21523;-61
2022/05/12 04:45:12;;;;;;;8.98;4.83;;;;;;;11.69;77.92;100970.20;1755354;81;21067;-61
2022/05/12 04:47:41;;;;;;;10.70;4.85;;;;;;;11.87;77.45;100964.73;1752836;81;21003;-62
2022/05/12 04:50:14;;;;;;;6.55;4.78;;;;;;;12.02;77.18;100970.12;1768460;80;21591;-61
2022/05/12 04:52:44;;;;;;;10.82;4.45;;;;;;;12.16;77.50;100969.95;1798013;79;21054;-62
2022/05/12 04:55:11;;;;;;;7.97;3.95;;;;;;;12.44;74.41;100976.05;1742090;80;21039;-63
2022/05/12 04:57:42;;;;;;;6.45;3.85;;;;;;;12.77;73.19;100976.29;1791607;79;21429;-62
2022/05/12 05:00:15;;;;;;;8.73;4.15;;;;;;;13.01;72.15;100974.75;1791757;79;20983;-62
2022/05/12 05:02:43;;;;;;;10.72;4.00;;;;;;;13.19;72.28;100972.59;1744148;80;21088;-63
2022/05/12 05:05:12;;;;;;;7.33;3.60;;;;;;;13.31;71.64;100971.20;1780554;80;21539;-62
2022/05/12 05:07:40;;;;;;;8.48;3.80;;;;;;;13.42;71.58;100971.97;1775036;80;21464;-60
2022/05/12 05:10:11;;;;;;;6.10;3.87;;;;;;;13.62;70.79;100969.70;1787878;79;20999;-62
2022/05/12 05:12:41;;;;;;;10.85;3.92;;;;;;;13.96;69.40;100967.55;1782117;80;21316;-62
2022/05/12 05:15:10;;;;;;;11.12;3.92;;;;;;;14.34;68.26;100967.80;1782004;80;21046;-62
2022/05/12 05:17:39;;;;;;;10.90;3.65;;;;;;;14.65;67.01;100965.73;1787179;80;20944;-63
2022/05/12 05:20:10;;;;;;;9.43;3.40;;;;;;;14.89;65.87;100965.33;1788590;80;21447;-62
2022/05/12 05:22:38;;;;;;;8.38;3.70;;;;;;;15.11;67.26;100968.87;1789530;80;20978;-62
2022/05/12 05:25:07;;;;;;;6.22;3.27;;;;;;;15.26;65.98;100970.59;1780830;80;21011;-62
2022/05/12 05:27:35;;;;;;;9.30;3.40;;;;;;;15.54;65.78;100976.34;1786058;80;21480;-61
2022/05/12 05:30:04;;;;;;;6.12;2.80;;;;;;;15.74;63.21;100978.30;1788041;80;21506;-62
2022/05/12 05:32:32;;;;;;;8.83;3.60;;;;;;;15.86;62.44;100970.26;1778483;80;21040;-62
2022/05/12 05:34:59;;;;;;;7.78;3.20;;;;;;;16.02;62.63;100978.34;1783363;80;21016;-62
2022/05/12 05:37:26;;;;;;;7.87;3.17;;;;;;;16.23;62.54;100979.28;1766315;80;21535;-62
2022/05/12 05:39:53;;;;;;;8.98;3.83;;;;;;;16.33;60.68;100971.77;1786010;80;21452;-61
2022/05/12 05:42:22;;;;;;;7.65;3.52;;;;;;;16.44;60.34;100966.73;1773869;80;21616;-61
2022/05/12 05:44:50;;;;;;;7.85;3.30;;;;;;;16.60;61.27;100971.82;1786146;80;21527;-61
2022/05/12 05:47:19;;;;;;;8.65;3.40;;;;;;;16.79;60.25;100974.95;1781462;80;21031;-61
2022/05/12 05:49:47;;;;;;;7.40;3.10;;;;;;;17.11;59.27;100966.92;1787017;79;21023;-60
2022/05/12 05:55:00;;;;;;;6.97;3.02;;;;;;;17.91;57.52;100963.45;1777275;80;21034;-62
2022/05/12 05:57:36;;;;;;;6.55;3.00;;;;;;;17.58;57.24;100968.66;1785594;80;21012;-62
2022/05/12 06:00:04;;;;;;;8.00;3.30;;;;;;;17.66;57.57;100964.22;1785226;80;21530;-62
2022/05/12 06:02:31;;;;;;;10.43;3.30;;;;;;;17.76;57.12;100963.97;1778242;80;21439;-62
2022/05/12 06:04:58;;;;;;;5.17;2.80;;;;;;;17.93;56.74;100962.88;1781687;80;21556;-62
2022/05/12 06:07:26;;;;;;;10.00;3.10;;;;;;;18.18;57.00;100963.34;1780918;80;21484;-61
2022/05/12 06:09:54;;;;;;;7.40;3.12;;;;;;;18.58;56.66;100961.87;1780629;80;21034;-62
2022/05/12 06:12:21;;;;;;;7.55;3.37;;;;;;;18.80;55.34;100959.43;1781981;80;21067;-62
2022/05/12 06:14:48;;;;;;;5.40;2.95;;;;;;;19.30;53.46;100963.23;1781701;80;21044;-62
2022/05/12 06:17:15;;;;;;;8.10;3.00;;;;;;;19.46;53.38;100960.30;1788268;80;21495;-63
2022/05/12 06:19:42;;;;;;;7.30;2.95;;;;;;;19.61;52.52;100961.78;1787022;80;21000;-62
2022/05/12 06:22:11;;;;;;;7.58;3.00;;;;;;;19.79;50.89;100958.30;1780600;80;21490;-59
2022/05/12 06:24:38;;;;;;;6.35;3.10;;;;;;;19.98;50.38;100968.16;1773644;80;21340;-61
2022/05/12 06:27:06;;;;;;;6.80;3.12;;;;;;;20.25;50.21;100960.93;1779351;80;21007;-60
2022/05/12 06:29:33;;;;;;;15.20;3.45;;;;;;;20.48;50.18;100951.27;1787975;80;20996;-61
2022/05/12 06:32:01;;;;;;;8.10;3.20;;;;;;;20.58;50.92;100961.39;1781328;80;21059;-62
2022/05/12 06:34:29;;;;;;;5.70;2.70;;;;;;;20.79;50.74;100960.18;1788743;79;21514;-62
2022/05/12 06:36:59;;;;;;;6.15;3.15;;;;;;;20.87;48.48;100961.70;1789322;80;20991;-61
2022/05/12 06:39:26;;;;;;;8.45;2.77;;;;;;;20.51;48.08;100961.50;1781837;80;21481;-61
2022/05/12 06:41:54;;;;;;;6.22;3.25;;;;;;;20.49;47.72;100956.88;1787139;79;21054;-62
2022/05/12 06:44:23;;;;;;;6.72;2.75;;;;;;;21.09;48.00;100953.44;1777585;80;21014;-61
2022/05/12 06:46:51;;;;;;;5.70;3.30;;;;;;;21.10;46.78;100946.74;1772990;80;21039;-61
2022/05/12 06:49:19;;;;;;;5.33;2.75;;;;;;;21.30;48.64;100935.13;1777851;80;20999;-60
2022/05/12 06:51:46;;;;;;;7.53;3.20;;;;;;;21.48;48.47;100937.55;1782079;79;21070;-61
2022/05/12 06:54:14;;;;;;;9.58;3.08;;;;;;;21.52;46.74;100938.13;1788298;79;21476;-61
2022/05/12 06:56:42;;;;;;;7.92;3.20;;;;;;;21.14;47.00;100946.02;1791997;79;20995;-61
2022/05/12 06:59:09;;;;;;;7.20;3.08;;;;;;;21.13;48.66;100945.69;1787887;79;21471;-61
2022/05/12 07:01:37;;;;;;;7.40;2.92;;;;;;;21.29;47.52;100946.09;1787357;79;21050;-61
2022/05/12 07:04:04;;;;;;;6.80;2.90;;;;;;;21.39;45.54;100944.81;1779401;80;21019;-61
2022/05/12 07:06:32;;;;;;;7.03;2.75;;;;;;;21.46;45.10;100942.09;1780834;79;21075;-61
2022/05/12 07:08:59;;;;;;;6.92;2.90;;;;;;;21.61;44.32;100941.28;1780766;80;21082;-61
2022/05/12 07:11:26;;;;;;;6.10;2.75;;;;;;;21.68;44.50;100947.67;1780523;80;21627;-61
2022/05/12 07:13:53;;;;;;;4.97;2.60;;;;;;;21.76;44.87;100937.87;1779781;80;21074;-61
2022/05/12 07:16:21;;;;;;;8.08;2.92;;;;;;;21.81;43.62;100939.60;1779748;80;21110;-61
2022/05/12 07:18:49;;;;;;;8.45;2.80;;;;;;;21.94;43.71;100935.48;1780107;80;21559;-61
2022/05/12 07:26:57;;;;;;;8.23;2.80;;;;;;;22.48;43.56;100933.47;1779787;80;21531;-61
2022/05/12 07:29:28;;;;;;;6.95;2.98;;;;;;;22.52;41.71;100934.86;1780069;80;21031;-61
2022/05/12 07:31:58;;;;;;;7.83;2.85;;;;;;;22.73;41.39;100929.50;1780114;80;21075;-61
2022/05/12 07:34:25;;;;;;;6.47;2.75;;;;;;;22.78;41.22;100924.19;1754018;80;21027;-60
2022/05/12 07:36:54;;;;;;;7.00;3.02;;;;;;;22.87;40.85;100927.81;1780114;80;21043;-61
2022/05/12 07:39:27;;;;;;;8.65;3.80;;;;;;;22.99;40.83;100925.39;1780072;80;21071;-61
2022/05/12 07:41:56;;;;;;;6.08;3.17;;;;;;;23.03;39.02;100923.81;1780138;80;21127;-61
2022/05/12 07:44:31;;;;;;;7.85;3.58;;;;;;;23.14;37.90;100928.94;1791003;78;21589;-61
2022/05/12 07:46:52;;;;;;;5.95;2.90;;;;;;;23.09;39.87;100927.20;1829084;78;21085;-62
2022/05/12 07:49:20;;;;;;;6.72;2.72;;;;;;;23.27;38.46;100922.08;1831660;78;21007;-62
2022/05/12 07:51:47;;;;;;;4.12;2.62;;;;;;;23.33;40.39;100926.28;1830595;78;21040;-62
2022/05/12 07:54:15;;;;;;;6.40;2.98;;;;;;;23.32;38.44;100921.19;1823037;78;21022;-62
2022/05/12 07:56:42;;;;;;;6.83;2.75;;;;;;;23.26;39.13;100930.45;1837332;78;21057;-62
2022/05/12 07:59:09;;;;;;;5.20;2.60;;;;;;;23.34;38.49;100928.44;1831159;78;20982;-62
2022/05/12 08:01:38;;;;;;;5.75;2.87;;;;;;;23.39;37.60;100930.97;1825948;78;21044;-62
2022/05/12 08:04:05;;;;;;;6.97;3.12;;;;;;;23.48;37.50;100931.09;1834674;78;21060;-61
2022/05/12 08:06:33;;;;;;;6.42;2.70;;;;;;;23.46;36.83;100930.41;1829037;78;21045;-61
2022/05/12 08:09:01;;;;;;;5.42;3.20;;;;;;;23.75;38.64;100930.34;1825880;78;21025;-61
2022/05/12 08:11:28;;;;;;;7.15;2.90;;;;;;;23.90;38.25;100926.80;1815760;78;21062;-61
2022/05/12 08:13:56;;;;;;;8.53;3.30;;;;;;;23.85;37.64;100931.67;1818001;78;21017;-62
2022/05/12 08:16:23;;;;;;;5.70;2.62;;;;;;;23.80;37.17;100929.45;1822094;78;21009;-62
2022/05/12 08:18:52;;;;;;;7.87;3.30;;;;;;;23.84;38.07;100924.25;1828278;78;21009;-62
2022/05/12 08:24:26;;;;;;;3.87;2.75;;;;;;;24.08;37.32;100922.91;1832431;78;20977;-62
2022/05/12 08:26:53;;;;;;;5.78;2.92;;;;;;;24.15;38.03;100923.51;1827986;78;22117;-62
2022/05/12 08:29:21;;;;;;;5.78;2.72;;;;;;;24.15;36.96;100927.45;1827678;78;20966;-62
2022/05/12 08:31:48;;;;;;;9.70;3.40;;;;;;;24.24;36.40;100926.23;1831722;78;20989;-62
2022/05/12 08:34:15;;;;;;;8.03;3.00;;;;;;;24.15;36.32;100931.41;1822758;78;21270;-63
2022/05/12 08:36:43;;;;;;;7.85;2.80;;;;;;;24.15;37.59;100916.94;1829296;78;21049;-62
2022/05/12 08:39:10;;;;;;;5.67;3.00;;;;;;;24.24;36.33;100927.55;1836201;78;21004;-63
2022/05/12 08:42:08;;;;;;;7.60;2.95;;;;;;;24.27;36.59;100923.30;1831988;78;21060;-63
2022/05/12 08:44:39;;;;;;;7.87;2.90;;;;;;;24.38;36.93;100919.16;1810020;79;21574;-62
2022/05/12 08:47:14;;;;;;;5.30;2.70;;;;;;;24.57;36.79;100920.40;1810074;79;21014;-63
2022/05/12 08:49:50;;;;;;;7.33;2.85;;;;;;;24.48;36.05;100914.66;1810034;79;21475;-62
2022/05/12 08:52:38;;;;;;;5.70;2.50;;;;;;;24.48;36.04;100915.16;1810154;79;21486;-61
2022/05/12 08:55:31;;;;;;;9.15;2.90;;;;;;;24.62;36.67;100921.26;1810154;79;21026;-62
2022/05/12 08:58:27;;;;;;;5.92;2.60;;;;;;;24.86;36.99;100922.45;1818342;75;21153;-61
2022/05/12 09:01:06;;;;;;;5.72;2.60;;;;;;;24.91;36.66;100913.62;1819085;79;21027;-62
2022/05/12 09:03:57;;;;;;;5.12;2.60;;;;;;;24.87;36.52;100909.14;1819141;79;21031;-62
2022/05/12 09:06:48;;;;;;;5.97;2.80;;;;;;;24.72;35.95;100913.30;1819460;79;21522;-62
2022/05/12 09:09:26;;;;;;;6.47;2.50;;;;;;;24.66;36.64;100908.63;1819503;79;21011;-62
2022/05/12 09:12:03;;;;;;;7.42;2.72;;;;;;;24.97;38.41;100905.94;1787123;80;21546;-62
2022/05/12 09:15:00;;;;;;;3.17;2.50;;;;;;;24.94;36.54;100895.72;1787387;80;21007;-63
2022/05/12 09:17:43;;;;;;;7.25;2.55;;;;;;;24.75;35.16;100908.53;1765144;80;21040;-62
2022/05/12 09:20:12;;;;;;;5.80;2.45;;;;;;;24.85;37.14;100899.75;1785433;80;21531;-61
2022/05/12 09:22:43;;;;;;;4.60;2.40;;;;;;;25.08;37.17;100900.09;1787105;80;21042;-63
2022/05/12 09:25:15;;;;;;;3.87;2.30;;;;;;;24.85;35.82;100896.62;1754503;80;21042;-62
2022/05/12 09:27:44;;;;;;;4.12;2.50;;;;;;;24.85;35.99;100905.83;1782175;80;21066;-62
2022/05/12 09:30:14;;;;;;;4.03;2.00;;;;;;;24.82;35.18;100898.25;1787185;80;21110;-62
2022/05/12 09:32:42;;;;;;;3.67;1.98;;;;;;;25.14;35.75;100895.06;1787226;80;21035;-62
2022/05/12 09:35:23;;;;;;;6.20;2.50;;;;;;;25.33;34.73;100889.29;1787214;80;21046;-62
2022/05/12 09:37:52;;;;;;;3.67;2.25;;;;;;;25.31;34.32;100903.92;1785661;80;21090;-61
2022/05/12 09:40:39;;;;;;;6.05;2.45;;;;;;;25.45;34.89;100889.36;1787372;80;20979;-61
2022/05/12 09:43:31;;;;;;;6.05;2.37;;;;;;;25.53;35.86;100874.09;1786980;80;21067;-61
2022/05/12 09:46:09;;;;;;;5.20;2.40;;;;;;;25.58;36.04;100893.70;1787426;80;21003;-62
2022/05/12 09:48:38;;;;;;;3.33;2.58;;;;;;;25.55;35.91;100890.08;1787031;80;21043;-61
2022/05/12 09:51:26;;;;;;;5.78;2.60;;;;;;;25.76;35.98;100891.00;1787416;80;21007;-62
2022/05/12 09:53:57;;;;;;;5.67;2.67;;;;;;;25.62;34.52;100881.05;1787035;80;21039;-62
2022/05/12 09:56:34;;;;;;;6.78;3.17;;;;;;;25.62;35.53;100882.36;1782881;80;21513;-62
2022/05/12 09:59:16;;;;;;;3.77;2.50;;;;;;;26.16;37.22;100875.54;1787386;80;21054;-62
2022/05/12 10:02:00;;;;;;;7.55;2.40;;;;;;;25.85;35.17;100871.26;1787235;80;21039;-61
2022/05/12 10:10:26;;;;;;;3.87;2.20;;;;;;;25.94;34.05;100856.66;1756152;81;21563;-61
2022/05/12 10:13:11;;;;;;;4.67;2.25;;;;;;;25.88;33.10;100851.17;1756480;82;21035;-61
2022/05/12 10:15:41;;;;;;;6.80;2.25;;;;;;;25.92;33.38;100847.27;1756195;81;21028;-61
2022/05/12 10:18:34;;;;;;;3.35;1.80;;;;;;;26.19;34.33;100855.41;1756398;82;20995;-61
2022/05/12 10:21:24;;;;;;;4.85;2.10;;;;;;;26.22;33.02;100852.47;1756223;82;21037;-61
2022/05/12 10:24:22;;;;;;;5.00;2.05;;;;;;;26.24;33.46;100848.32;1755910;82;21079;-62
2022/05/12 10:26:58;;;;;;;2.50;1.75;;;;;;;26.35;32.89;100850.67;1756259;82;21621;-61
2022/05/12 10:30:23;;;;;;;4.87;2.17;;;;;;;26.17;32.64;100842.88;1756353;82;21544;-61
2022/05/12 10:33:17;;;;;;;3.92;2.10;;;;;;;26.40;34.61;100840.46;1756139;82;21036;-61
2022/05/12 10:36:24;;;;;;;5.67;2.03;;;;;;;26.42;32.79;100845.08;1756399;82;21512;-62
2022/05/12 10:39:02;;;;;;;5.15;2.42;;;;;;;26.30;32.16;100847.20;1756059;82;21041;-61
2022/05/12 10:41:35;;;;;;;7.62;2.20;;;;;;;26.15;32.02;100833.79;1756498;82;21501;-61
2022/05/12 10:44:41;;;;;;;2.60;2.00;;;;;;;26.33;32.45;100836.30;1754924;82;21158;-61
2022/05/12 10:47:50;;;;;;;5.80;2.25;;;;;;;26.73;32.37;100828.62;1756165;82;20355;-61
2022/05/12 10:50:37;;;;;;;8.58;2.58;;;;;;;26.73;32.37;100828.62;1689102;84;21528;-61
2022/05/12 10:53:18;;;;;;;4.45;2.90;;;;;;;26.86;33.66;100818.36;1752505;81;21036;-61
2022/05/12 10:56:24;;;;;;;5.45;2.80;;;;;;;26.78;31.71;100818.38;1795034;75;21176;-62
2022/05/12 10:59:19;;;;;;;6.15;3.30;;;;;;;26.84;31.66;100819.53;1795235;79;21174;-62
2022/05/12 11:01:59;;;;;;;5.05;2.70;;;;;;;26.78;32.37;100816.58;1795647;79;21038;-62
2022/05/12 11:04:38;;;;;;;4.25;2.75;;;;;;;26.89;31.91;100806.16;1801992;78;20986;-62
2022/05/12 11:07:16;;;;;;;7.08;2.60;;;;;;;27.22;33.07;100799.48;1760382;81;21071;-62
2022/05/12 11:09:48;;;;;;;5.25;2.50;;;;;;;27.23;32.43;100799.85;1791483;79;21007;-62
2022/05/12 11:12:32;;;;;;;6.30;2.70;;;;;;;27.36;31.77;100788.73;1778459;80;21076;-62
2022/05/12 11:15:19;;;;;;;4.47;2.25;;;;;;;27.53;32.06;100791.62;1752031;81;21068;-62
2022/05/12 11:18:07;;;;;;;8.23;2.40;;;;;;;27.25;31.83;100792.58;1751603;81;21080;-63
2022/05/12 11:20:43;;;;;;;8.55;2.20;;;;;;;27.16;32.35;100784.30;1722697;82;21067;-61
2022/05/12 11:23:31;;;;;;;4.08;2.02;;;;;;;27.28;32.41;100779.51;1751754;81;21541;-61
2022/05/12 11:26:15;;;;;;;3.60;2.10;;;;;;;27.60;33.78;100773.77;1751810;80;21080;-62
2022/05/12 11:32:35;;;;;;;5.80;2.00;;;;;;;27.81;33.01;100762.07;1751813;81;21045;-61
2022/05/12 11:35:07;;;;;;;10.08;2.10;;;;;;;27.82;30.91;100767.70;1751588;80;21527;-61
2022/05/12 11:37:49;;;;;;;3.55;1.90;;;;;;;27.99;31.78;100757.05;1751969;81;21038;-61
2022/05/12 11:40:48;;;;;;;5.65;1.98;;;;;;;28.14;32.80;100756.59;1747478;81;21045;-62
2022/05/12 11:46:41;;;;;;;6.03;2.08;;;;;;;27.95;30.97;100753.41;1760728;80;21055;-62
2022/05/12 11:49:46;;;;;;;7.15;2.50;;;;;;;27.76;31.14;100754.66;1763456;80;20998;-61
2022/05/12 11:52:30;;;;;;;7.60;2.70;;;;;;;27.91;32.99;100756.59;1768110;80;21003;-62
2022/05/12 11:55:06;;;;;;;5.72;2.45;;;;;;;28.00;31.10;100751.55;1757500;80;21592;-62
2022/05/12 11:57:40;;;;;;;5.33;2.60;;;;;;;27.97;30.81;100746.13;1699668;84;21053;-61
2022/05/12 12:00:33;;;;;;;6.60;2.33;;;;;;;27.91;32.10;100740.21;1747938;81;21575;-62
2022/05/12 12:03:22;;;;;;;6.28;2.62;;;;;;;28.03;30.70;100737.17;1747470;82;21055;-62
2022/05/12 12:06:00;;;;;;;6.17;2.65;;;;;;;28.05;31.34;100743.92;1658636;85;21489;-62
2022/05/12 12:08:43;;;;;;;5.58;2.60;;;;;;;28.00;30.62;100738.32;1667372;85;21037;-62
2022/05/12 12:11:22;;;;;;;5.58;2.20;;;;;;;28.30;31.67;100728.66;1700983;83;21122;-62
2022/05/12 12:13:59;;;;;;;8.58;2.30;;;;;;;28.54;32.02;100738.25;1696841;83;21067;-61